createdAt,value
2023-06-05T00:00:24.158Z,0.00
2023-06-05T00:01:24.130Z,0.00
2023-06-05T00:02:24.132Z,0.00
2023-06-05T00:03:24.195Z,0.00
2023-06-05T00:04:24.090Z,0.00
2023-06-05T00:05:23.958Z,0.00
2023-06-05T00:06:23.919Z,0.00
2023-06-05T00:07:23.897Z,0.00
2023-06-05T00:08:23.839Z,0.00
2023-06-05T00:09:23.806Z,0.00
2023-06-05T00:10:23.768Z,0.00
2023-06-05T00:11:23.725Z,0.00
2023-06-05T00:12:23.681Z,0.00
2023-06-05T00:13:23.674Z,0.00
2023-06-05T00:14:23.610Z,0.00
2023-06-05T00:15:23.596Z,0.00
2023-06-05T00:16:23.569Z,0.00
2023-06-05T00:17:23.508Z,0.00
2023-06-05T00:18:23.449Z,0.00
2023-06-05T00:19:23.429Z,0.00
2023-06-05T00:20:23.385Z,0.00
2023-06-05T00:21:23.337Z,0.00
2023-06-05T00:22:23.301Z,0.00
2023-06-05T00:23:23.298Z,0.00
2023-06-05T00:24:23.221Z,0.00
2023-06-05T00:25:23.222Z,0.00
2023-06-05T00:26:23.140Z,0.00
2023-06-05T00:27:23.102Z,0.00
2023-06-05T00:28:23.067Z,0.00
2023-06-05T00:29:23.113Z,0.00
2023-06-05T00:30:23.000Z,0.00
2023-06-05T00:31:23.124Z,0.00
2023-06-05T00:32:22.933Z,0.00
2023-06-05T00:33:22.917Z,0.00
2023-06-05T00:34:22.844Z,0.00
2023-06-05T00:35:22.802Z,0.00
2023-06-05T00:36:22.784Z,0.00
2023-06-05T00:37:22.728Z,0.00
2023-06-05T00:38:22.690Z,0.00
2023-06-05T00:39:22.646Z,0.00
2023-06-05T00:40:22.607Z,0.00
2023-06-05T00:41:22.568Z,0.00
2023-06-05T00:42:22.541Z,0.00
2023-06-05T00:43:22.495Z,0.00
2023-06-05T00:44:22.448Z,0.00
2023-06-05T00:45:22.423Z,0.00
2023-06-05T00:46:22.413Z,0.00
2023-06-05T00:47:22.367Z,0.00
2023-06-05T00:48:22.296Z,0.00
2023-06-05T00:49:22.268Z,0.00
2023-06-05T00:50:22.221Z,0.00
2023-06-05T00:51:22.196Z,0.00
2023-06-05T00:52:22.165Z,0.00
2023-06-05T00:53:22.116Z,0.00
2023-06-05T00:54:22.111Z,0.00
2023-06-05T00:55:22.039Z,0.00
2023-06-05T00:56:22.142Z,0.00
2023-06-05T00:57:21.963Z,0.00
2023-06-05T00:58:21.910Z,0.00
2023-06-05T00:59:21.887Z,0.00
2023-06-05T01:00:21.872Z,0.00
2023-06-05T01:01:21.877Z,0.00
2023-06-05T01:02:21.774Z,0.00
2023-06-05T01:03:21.821Z,0.00
2023-06-05T01:04:21.681Z,0.00
2023-06-05T01:05:21.669Z,0.00
2023-06-05T01:06:21.597Z,0.00
2023-06-05T01:07:21.580Z,0.00
2023-06-05T01:08:21.521Z,0.00
2023-06-05T01:09:21.495Z,0.00
2023-06-05T01:10:21.461Z,0.00
2023-06-05T01:11:21.465Z,0.00
2023-06-05T01:12:21.471Z,0.00
2023-06-05T01:13:21.351Z,0.00
2023-06-05T01:14:21.295Z,0.00
2023-06-05T01:15:21.256Z,0.00
2023-06-05T01:16:21.234Z,0.00
2023-06-05T01:17:21.242Z,0.00
2023-06-05T01:18:21.170Z,0.00
2023-06-05T01:19:21.103Z,0.00
2023-06-05T01:20:21.072Z,0.00
2023-06-05T01:21:21.021Z,0.00
2023-06-05T01:22:21.000Z,0.00
2023-06-05T01:23:20.997Z,0.00
2023-06-05T01:24:20.916Z,0.00
2023-06-05T01:25:20.871Z,0.00
2023-06-05T01:26:20.829Z,0.00
2023-06-05T01:27:20.786Z,0.00
2023-06-05T01:28:20.769Z,0.00
2023-06-05T01:29:20.730Z,0.00
2023-06-05T01:30:20.678Z,0.00
2023-06-05T01:31:20.652Z,0.00
2023-06-05T01:32:20.591Z,0.00
2023-06-05T01:33:20.561Z,0.00
2023-06-05T01:34:20.514Z,0.00
2023-06-05T01:35:20.518Z,0.00
2023-06-05T01:36:20.434Z,0.00
2023-06-05T01:37:20.595Z,0.00
2023-06-05T01:38:20.368Z,0.00
2023-06-05T01:39:20.332Z,0.00
2023-06-05T01:40:20.322Z,0.00
2023-06-05T01:41:20.250Z,0.00
2023-06-05T01:42:20.201Z,0.00
2023-06-05T01:43:20.176Z,0.00
2023-06-05T01:44:20.121Z,0.00
2023-06-05T01:45:20.096Z,0.00
2023-06-05T01:46:20.086Z,0.00
2023-06-05T01:47:20.013Z,0.00
2023-06-05T01:48:19.973Z,0.00
2023-06-05T01:49:19.934Z,0.00
2023-06-05T01:50:39.329Z,0.00
2023-06-05T01:51:38.929Z,0.00
2023-06-05T01:52:37.936Z,0.00
2023-06-05T01:53:41.914Z,0.00
2023-06-05T01:54:38.468Z,0.00
2023-06-05T01:55:19.726Z,0.00
2023-06-05T01:56:30.525Z,0.00
2023-06-05T01:57:29.048Z,0.00
2023-06-05T01:58:19.623Z,0.00
2023-06-05T01:59:19.532Z,0.00
2023-06-05T02:00:28.580Z,0.00
2023-06-05T02:01:29.674Z,0.00
2023-06-05T02:02:37.243Z,0.00
2023-06-05T02:03:19.486Z,0.00
2023-06-05T02:04:19.360Z,0.00
2023-06-05T02:05:19.313Z,0.00
2023-06-05T02:06:19.260Z,0.00
2023-06-05T02:07:19.246Z,0.00
2023-06-05T02:08:19.180Z,0.00
2023-06-05T02:09:19.197Z,0.00
2023-06-05T02:10:19.100Z,0.00
2023-06-05T02:11:19.084Z,0.00
2023-06-05T02:12:19.020Z,0.00
2023-06-05T02:13:18.979Z,0.00
2023-06-05T02:14:18.937Z,0.00
2023-06-05T02:15:18.916Z,0.00
2023-06-05T02:16:18.937Z,0.00
2023-06-05T02:17:18.852Z,0.00
2023-06-05T02:18:39.695Z,0.00
2023-06-05T02:20:45.727Z,0.00
2023-06-05T02:21:13.228Z,0.00
2023-06-05T02:21:46.172Z,0.00
2023-06-05T02:22:46.212Z,0.00
2023-06-05T02:23:46.115Z,0.00
2023-06-05T02:24:46.030Z,0.00
2023-06-05T02:25:46.009Z,0.00
2023-06-05T02:26:45.966Z,0.00
2023-06-05T02:27:45.939Z,0.00
2023-06-05T02:28:45.870Z,0.00
2023-06-05T02:29:45.836Z,0.00
2023-06-05T02:30:45.807Z,0.00
2023-06-05T02:31:45.797Z,0.00
2023-06-05T02:32:45.809Z,0.00
2023-06-05T02:33:45.691Z,0.00
2023-06-05T02:34:45.634Z,0.00
2023-06-05T02:35:45.600Z,0.00
2023-06-05T02:36:45.556Z,0.00
2023-06-05T02:37:45.555Z,0.00
2023-06-05T02:38:45.483Z,0.00
2023-06-05T02:39:45.463Z,0.00
2023-06-05T02:40:45.399Z,0.00
2023-06-05T02:41:45.360Z,0.00
2023-06-05T02:42:45.323Z,0.00
2023-06-05T02:43:45.282Z,0.00
2023-06-05T02:44:45.240Z,0.00
2023-06-05T02:45:45.261Z,0.00
2023-06-05T02:46:45.162Z,0.00
2023-06-05T02:47:45.153Z,0.00
2023-06-05T02:48:45.103Z,0.00
2023-06-05T02:49:45.045Z,0.00
2023-06-05T02:50:45.000Z,0.00
2023-06-05T02:51:44.991Z,0.00
2023-06-05T02:52:44.930Z,0.00
2023-06-05T02:53:44.887Z,0.00
2023-06-05T02:54:44.852Z,0.00
2023-06-05T02:55:44.817Z,0.00
2023-06-05T02:56:44.762Z,0.00
2023-06-05T02:57:44.753Z,0.00
2023-06-05T02:58:44.697Z,0.00
2023-06-05T02:59:44.673Z,0.00
2023-06-05T03:00:44.605Z,0.00
2023-06-05T03:01:44.653Z,0.00
2023-06-05T03:02:44.604Z,0.00
2023-06-05T03:03:44.562Z,0.00
2023-06-05T03:04:44.460Z,0.00
2023-06-05T03:05:44.421Z,0.00
2023-06-05T03:06:44.386Z,0.00
2023-06-05T03:07:44.337Z,5.63
2023-06-05T03:08:44.288Z,5.63
2023-06-05T03:09:44.271Z,5.63
2023-06-05T03:10:44.247Z,5.63
2023-06-05T03:11:44.189Z,5.63
2023-06-05T03:12:44.138Z,5.63
2023-06-05T03:13:44.092Z,5.63
2023-06-05T03:14:44.064Z,5.63
2023-06-05T03:15:44.050Z,11.25
2023-06-05T03:16:43.988Z,11.25
2023-06-05T03:17:44.017Z,11.25
2023-06-05T03:18:43.906Z,11.25
2023-06-05T03:19:43.857Z,11.25
2023-06-05T03:20:43.819Z,11.25
2023-06-05T03:21:43.778Z,16.88
2023-06-05T03:22:43.741Z,16.88
2023-06-05T03:23:43.818Z,16.88
2023-06-05T03:24:43.660Z,16.88
2023-06-05T03:25:43.621Z,22.50
2023-06-05T03:26:43.594Z,22.50
2023-06-05T03:27:43.540Z,22.50
2023-06-05T03:28:43.513Z,22.50
2023-06-05T03:29:43.471Z,28.13
2023-06-05T03:30:43.427Z,28.13
2023-06-05T03:31:43.381Z,28.13
2023-06-05T03:32:43.406Z,33.75
2023-06-05T03:33:43.316Z,33.75
2023-06-05T03:34:43.261Z,33.75
2023-06-05T03:35:43.251Z,39.38
2023-06-05T03:36:43.181Z,39.38
2023-06-05T03:37:43.143Z,39.38
2023-06-05T03:38:43.115Z,45.00
2023-06-05T03:39:43.062Z,45.00
2023-06-05T03:40:43.123Z,50.63
2023-06-05T03:41:43.020Z,50.63
2023-06-05T03:42:42.964Z,50.63
2023-06-05T03:43:42.906Z,56.25
2023-06-05T03:44:42.860Z,56.25
2023-06-05T03:45:42.842Z,61.88
2023-06-05T03:46:42.848Z,61.88
2023-06-05T03:47:42.778Z,67.50
2023-06-05T03:48:42.701Z,67.50
2023-06-05T03:49:42.669Z,67.50
2023-06-05T03:50:42.638Z,73.13
2023-06-05T03:51:42.590Z,73.13
2023-06-05T03:52:42.565Z,78.75
2023-06-05T03:53:42.512Z,78.75
2023-06-05T03:54:42.476Z,84.38
2023-06-05T03:55:42.583Z,84.38
2023-06-05T03:56:42.390Z,90.00
2023-06-05T03:57:42.414Z,90.00
2023-06-05T03:58:42.319Z,95.63
2023-06-05T03:59:42.280Z,95.63
2023-06-05T04:00:42.231Z,101.25
2023-06-05T04:01:42.260Z,101.25
2023-06-05T04:02:42.175Z,106.88
2023-06-05T04:03:42.246Z,106.88
2023-06-05T04:04:42.076Z,112.50
2023-06-05T04:05:42.039Z,118.13
2023-06-05T04:06:42.025Z,118.13
2023-06-05T04:07:41.977Z,123.75
2023-06-05T04:08:41.928Z,123.75
2023-06-05T04:09:41.874Z,129.38
2023-06-05T04:10:41.841Z,129.38
2023-06-05T04:11:41.793Z,135.00
2023-06-05T04:12:41.773Z,135.00
2023-06-05T04:13:53.929Z,140.63
2023-06-05T04:14:41.681Z,140.63
2023-06-05T04:15:41.643Z,146.25
2023-06-05T04:16:41.725Z,146.25
2023-06-05T04:17:41.608Z,151.88
2023-06-05T04:18:41.518Z,157.50
2023-06-05T04:19:41.507Z,157.50
2023-06-05T04:20:41.450Z,163.13
2023-06-05T04:21:41.425Z,163.13
2023-06-05T04:22:41.360Z,168.75
2023-06-05T04:23:41.376Z,168.75
2023-06-05T04:24:41.282Z,174.38
2023-06-05T04:25:41.264Z,180.00
2023-06-05T04:26:41.232Z,180.00
2023-06-05T04:27:41.172Z,180.00
2023-06-05T04:28:41.126Z,180.00
2023-06-05T04:29:41.082Z,185.63
2023-06-05T04:30:41.096Z,191.25
2023-06-05T04:31:41.006Z,219.38
2023-06-05T04:32:40.997Z,270.00
2023-06-05T04:33:40.958Z,309.38
2023-06-05T04:34:40.894Z,331.88
2023-06-05T04:35:40.893Z,337.50
2023-06-05T04:36:40.807Z,343.13
2023-06-05T04:37:40.779Z,348.75
2023-06-05T04:38:40.745Z,360.00
2023-06-05T04:39:40.711Z,365.63
2023-06-05T04:40:40.726Z,371.25
2023-06-05T04:41:40.615Z,382.50
2023-06-05T04:42:40.585Z,393.75
2023-06-05T04:43:40.536Z,399.38
2023-06-05T04:44:40.517Z,410.63
2023-06-05T04:45:40.460Z,421.88
2023-06-05T04:46:40.510Z,433.13
2023-06-05T04:47:40.378Z,438.75
2023-06-05T04:48:40.353Z,450.00
2023-06-05T04:49:40.328Z,455.63
2023-06-05T04:50:40.329Z,461.25
2023-06-05T04:51:40.247Z,461.25
2023-06-05T04:52:40.219Z,466.88
2023-06-05T04:53:40.174Z,478.13
2023-06-05T04:54:40.143Z,489.38
2023-06-05T04:55:40.107Z,495.00
2023-06-05T04:56:40.055Z,495.00
2023-06-05T04:57:40.016Z,506.25
2023-06-05T04:58:39.975Z,511.88
2023-06-05T04:59:39.943Z,523.13
2023-06-05T05:00:39.949Z,540.00
2023-06-05T05:01:39.899Z,551.25
2023-06-05T05:02:39.905Z,551.25
2023-06-05T05:03:39.826Z,551.25
2023-06-05T05:04:39.795Z,556.88
2023-06-05T05:05:39.719Z,556.88
2023-06-05T05:06:39.707Z,556.88
2023-06-05T05:07:39.656Z,562.50
2023-06-05T05:08:39.616Z,568.13
2023-06-05T05:09:39.604Z,573.75
2023-06-05T05:10:39.558Z,585.00
2023-06-05T05:11:39.529Z,590.63
2023-06-05T05:12:39.508Z,596.25
2023-06-05T05:13:39.532Z,601.88
2023-06-05T05:14:39.416Z,613.13
2023-06-05T05:15:39.367Z,618.75
2023-06-05T05:16:39.410Z,624.38
2023-06-05T05:17:39.334Z,635.63
2023-06-05T05:18:39.267Z,641.25
2023-06-05T05:19:39.232Z,646.88
2023-06-05T05:20:39.206Z,652.50
2023-06-05T05:21:39.167Z,658.13
2023-06-05T05:22:39.151Z,669.38
2023-06-05T05:23:39.117Z,686.25
2023-06-05T05:24:39.075Z,697.50
2023-06-05T05:25:39.032Z,714.38
2023-06-05T05:26:39.000Z,731.25
2023-06-05T05:27:38.993Z,742.50
2023-06-05T05:28:38.937Z,759.38
2023-06-05T05:29:38.886Z,753.75
2023-06-05T05:30:38.866Z,748.13
2023-06-05T05:31:38.896Z,753.75
2023-06-05T05:32:38.835Z,759.38
2023-06-05T05:33:38.770Z,765.00
2023-06-05T05:34:38.720Z,776.25
2023-06-05T05:35:38.702Z,787.50
2023-06-05T05:36:38.668Z,793.13
2023-06-05T05:37:38.621Z,804.38
2023-06-05T05:38:38.594Z,815.63
2023-06-05T05:39:38.582Z,826.88
2023-06-05T05:40:38.544Z,826.88
2023-06-05T05:41:38.500Z,838.13
2023-06-05T05:42:38.458Z,849.38
2023-06-05T05:43:38.422Z,855.00
2023-06-05T05:44:38.400Z,866.25
2023-06-05T05:45:38.378Z,883.13
2023-06-05T05:46:38.339Z,860.63
2023-06-05T05:47:38.330Z,843.75
2023-06-05T05:48:38.266Z,838.13
2023-06-05T05:49:38.222Z,855.00
2023-06-05T05:50:38.199Z,855.00
2023-06-05T05:51:38.159Z,849.38
2023-06-05T05:52:38.135Z,849.38
2023-06-05T05:53:38.121Z,849.38
2023-06-05T05:54:38.069Z,849.38
2023-06-05T05:55:38.034Z,849.38
2023-06-05T05:56:38.011Z,860.63
2023-06-05T05:57:37.962Z,860.63
2023-06-05T05:58:37.952Z,866.25
2023-06-05T05:59:37.906Z,877.50
2023-06-05T06:00:37.868Z,877.50
2023-06-05T06:01:37.844Z,883.13
2023-06-05T06:02:50.510Z,888.75
2023-06-05T06:03:37.921Z,894.38
2023-06-05T06:04:37.821Z,894.38
2023-06-05T06:05:37.714Z,900.00
2023-06-05T06:06:37.681Z,905.63
2023-06-05T06:07:49.994Z,905.63
2023-06-05T06:08:46.054Z,911.25
2023-06-05T06:09:37.651Z,916.88
2023-06-05T06:10:46.216Z,922.50
2023-06-05T06:11:46.601Z,928.13
2023-06-05T06:12:37.536Z,933.75
2023-06-05T06:13:46.628Z,933.75
2023-06-05T06:14:37.435Z,933.75
2023-06-05T06:15:37.413Z,939.38
2023-06-05T06:16:37.345Z,945.00
2023-06-05T06:17:37.353Z,950.63
2023-06-05T06:18:37.274Z,956.25
2023-06-05T06:19:37.249Z,961.88
2023-06-05T06:20:37.249Z,973.13
2023-06-05T06:21:37.195Z,973.13
2023-06-05T06:22:37.158Z,984.38
2023-06-05T06:23:37.223Z,984.38
2023-06-05T06:24:37.078Z,990.00
2023-06-05T06:25:37.041Z,995.63
2023-06-05T06:26:37.027Z,1001.25
2023-06-05T06:27:36.994Z,1006.88
2023-06-05T06:28:36.988Z,1012.50
2023-06-05T06:29:36.915Z,1018.13
2023-06-05T06:30:36.891Z,1018.13
2023-06-05T06:31:36.915Z,1018.13
2023-06-05T06:32:36.854Z,1023.75
2023-06-05T06:33:36.782Z,1023.75
2023-06-05T06:34:36.773Z,1029.38
2023-06-05T06:35:36.732Z,1029.38
2023-06-05T06:36:36.693Z,1040.63
2023-06-05T06:37:36.787Z,1040.63
2023-06-05T06:38:36.632Z,1046.25
2023-06-05T06:39:36.596Z,1046.25
2023-06-05T06:40:36.587Z,1057.50
2023-06-05T06:41:36.534Z,1035.00
2023-06-05T06:42:36.496Z,1040.63
2023-06-05T06:43:36.471Z,1040.63
2023-06-05T06:44:36.440Z,1046.25
2023-06-05T06:45:36.460Z,1051.88
2023-06-05T06:46:36.375Z,1051.88
2023-06-05T06:47:36.364Z,1063.13
2023-06-05T06:48:36.446Z,1068.75
2023-06-05T06:49:36.294Z,1063.13
2023-06-05T06:50:36.294Z,1068.75
2023-06-05T06:51:36.232Z,1074.38
2023-06-05T06:52:36.179Z,1074.38
2023-06-05T06:53:36.151Z,1080.00
2023-06-05T06:54:36.282Z,1091.25
2023-06-05T06:55:36.097Z,1091.25
2023-06-05T06:56:36.070Z,1096.88
2023-06-05T06:57:36.056Z,1102.50
2023-06-05T06:58:35.995Z,1108.13
2023-06-05T06:59:37.255Z,1113.75
2023-06-05T07:00:36.002Z,1119.38
2023-06-05T07:01:35.923Z,1130.63
2023-06-05T07:02:35.932Z,1125.00
2023-06-05T07:03:35.915Z,1130.63
2023-06-05T07:04:43.691Z,1141.88
2023-06-05T07:05:45.722Z,1141.88
2023-06-05T07:06:45.259Z,1147.50
2023-06-05T07:07:43.287Z,1153.13
2023-06-05T07:08:44.359Z,1164.38
2023-06-05T07:09:35.673Z,1175.63
2023-06-05T07:10:42.730Z,1175.63
2023-06-05T07:11:35.589Z,1186.88
2023-06-05T07:12:35.551Z,1192.50
2023-06-05T07:13:35.525Z,1209.38
2023-06-05T07:14:35.517Z,1209.38
2023-06-05T07:15:43.442Z,1226.25
2023-06-05T07:16:35.497Z,1226.25
2023-06-05T07:17:35.411Z,1231.88
2023-06-05T07:18:35.371Z,1243.13
2023-06-05T07:19:35.346Z,1254.38
2023-06-05T07:20:35.313Z,1260.00
2023-06-05T07:21:35.280Z,1276.88
2023-06-05T07:22:35.262Z,1276.88
2023-06-05T07:23:35.246Z,1288.13
2023-06-05T07:24:35.184Z,1299.38
2023-06-05T07:25:35.164Z,1310.63
2023-06-05T07:26:35.122Z,1327.50
2023-06-05T07:27:35.111Z,1327.50
2023-06-05T07:28:35.072Z,1344.38
2023-06-05T07:29:35.033Z,1355.63
2023-06-05T07:30:35.013Z,1366.88
2023-06-05T07:31:35.036Z,1389.38
2023-06-05T07:32:34.954Z,1389.38
2023-06-05T07:33:34.974Z,1406.25
2023-06-05T07:34:34.879Z,1417.50
2023-06-05T07:35:35.762Z,1440.00
2023-06-05T07:36:34.818Z,1451.25
2023-06-05T07:37:34.806Z,1473.75
2023-06-05T07:38:34.761Z,1479.38
2023-06-05T07:39:34.736Z,1490.63
2023-06-05T07:40:34.688Z,1507.50
2023-06-05T07:41:34.664Z,1524.38
2023-06-05T07:42:34.638Z,1541.25
2023-06-05T07:43:34.615Z,1558.13
2023-06-05T07:44:34.615Z,1575.00
2023-06-05T07:45:34.548Z,1597.50
2023-06-05T07:47:02.146Z,1625.63
2023-06-05T07:47:35.390Z,1653.75
2023-06-05T07:49:34.444Z,1693.13
2023-06-05T07:50:34.414Z,1721.25
2023-06-05T07:51:34.376Z,1732.50
2023-06-05T07:52:34.354Z,1755.00
2023-06-05T07:53:34.306Z,1788.75
2023-06-05T07:54:34.700Z,1816.88
2023-06-05T07:55:34.287Z,1845.00
2023-06-05T07:56:34.250Z,1873.13
2023-06-05T07:57:34.189Z,1890.00
2023-06-05T07:58:34.240Z,1918.13
2023-06-05T08:01:43.162Z,2019.38
2023-06-05T08:02:43.183Z,2047.50
2023-06-05T08:03:43.301Z,2075.63
2023-06-05T08:04:43.065Z,2120.63
2023-06-05T08:05:43.019Z,2160.00
2023-06-05T08:06:46.232Z,2205.00
2023-06-05T08:07:43.012Z,2261.25
2023-06-05T08:08:42.947Z,2317.50
2023-06-05T08:09:42.901Z,2351.25
2023-06-05T08:10:42.862Z,2396.25
2023-06-05T08:11:43.004Z,2458.13
2023-06-05T08:12:42.806Z,2520.00
2023-06-05T08:13:42.775Z,2565.00
2023-06-05T08:14:42.761Z,2660.63
2023-06-05T08:15:42.800Z,2728.13
2023-06-05T08:16:42.732Z,2784.38
2023-06-05T08:17:42.699Z,2885.63
2023-06-05T08:18:42.633Z,2947.50
2023-06-05T08:19:42.591Z,2981.25
2023-06-05T08:20:42.589Z,3031.88
2023-06-05T08:21:42.548Z,3082.50
2023-06-05T08:22:42.503Z,3144.38
2023-06-05T08:23:42.509Z,3150.00
2023-06-05T08:24:42.460Z,3178.13
2023-06-05T08:25:42.411Z,3217.50
2023-06-05T08:26:42.416Z,3268.13
2023-06-05T08:27:42.367Z,3324.38
2023-06-05T08:28:42.335Z,3363.75
2023-06-05T08:29:42.305Z,3397.50
2023-06-05T08:30:42.266Z,3459.38
2023-06-05T08:31:42.285Z,3504.38
2023-06-05T08:32:42.229Z,3566.25
2023-06-05T08:33:42.202Z,3673.13
2023-06-05T08:34:42.164Z,3656.25
2023-06-05T08:35:42.141Z,3645.00
2023-06-05T08:36:42.096Z,3695.63
2023-06-05T08:37:42.077Z,3763.13
2023-06-05T08:38:42.875Z,3774.38
2023-06-05T08:39:41.993Z,3808.13
2023-06-05T08:40:41.975Z,3841.88
2023-06-05T08:41:41.940Z,3892.50
2023-06-05T08:42:41.937Z,3909.38
2023-06-05T08:43:41.907Z,3920.63
2023-06-05T08:44:50.233Z,3937.50
2023-06-05T08:45:41.844Z,3965.63
2023-06-05T08:46:41.804Z,3909.38
2023-06-05T08:47:41.803Z,3920.63
2023-06-05T08:48:41.743Z,3965.63
2023-06-05T08:49:41.702Z,3993.75
2023-06-05T08:50:41.686Z,4021.88
2023-06-05T08:51:41.641Z,4038.75
2023-06-05T08:52:41.613Z,3999.38
2023-06-05T08:53:41.593Z,3948.75
2023-06-05T08:54:41.578Z,3982.50
2023-06-05T08:55:41.541Z,4038.75
2023-06-05T08:56:41.537Z,4066.88
2023-06-05T08:57:41.482Z,4106.25
2023-06-05T08:58:41.448Z,4111.88
2023-06-05T08:59:41.409Z,4140.00
2023-06-05T09:00:41.401Z,4145.63
2023-06-05T09:01:41.412Z,4140.00
2023-06-05T09:02:41.400Z,4196.25
2023-06-05T09:03:41.335Z,4162.50
2023-06-05T09:04:41.275Z,4123.13
2023-06-05T09:05:41.239Z,4128.75
2023-06-05T09:06:41.236Z,4072.50
2023-06-05T09:07:41.182Z,4050.00
2023-06-05T09:08:41.153Z,4033.13
2023-06-05T09:09:41.119Z,4033.13
2023-06-05T09:10:41.094Z,4078.13
2023-06-05T09:11:41.078Z,4100.63
2023-06-05T09:12:41.062Z,4061.25
2023-06-05T09:13:41.009Z,4033.13
2023-06-05T09:14:40.986Z,4106.25
2023-06-05T09:15:40.997Z,4151.25
2023-06-05T09:16:40.930Z,4106.25
2023-06-05T09:17:40.929Z,4066.88
2023-06-05T09:18:40.879Z,4021.88
2023-06-05T09:19:40.832Z,4100.63
2023-06-05T09:20:40.825Z,4061.25
2023-06-05T09:21:43.453Z,3993.75
2023-06-05T09:22:40.755Z,3937.50
2023-06-05T09:23:40.733Z,3903.75
2023-06-05T09:24:40.723Z,3864.38
2023-06-05T09:25:40.666Z,3836.25
2023-06-05T09:26:40.638Z,3841.88
2023-06-05T09:27:40.616Z,3881.25
2023-06-05T09:28:40.578Z,3909.38
2023-06-05T09:29:40.559Z,3858.75
2023-06-05T09:30:40.532Z,3830.63
2023-06-05T09:31:40.636Z,3825.00
2023-06-05T09:32:40.509Z,3853.13
2023-06-05T09:33:40.434Z,3847.50
2023-06-05T09:34:40.425Z,3847.50
2023-06-05T09:35:40.382Z,3830.63
2023-06-05T09:36:40.369Z,3808.13
2023-06-05T09:37:40.338Z,3768.75
2023-06-05T09:38:40.291Z,3819.38
2023-06-05T09:39:40.261Z,3841.88
2023-06-05T09:40:40.247Z,3847.50
2023-06-05T09:41:40.200Z,3858.75
2023-06-05T09:42:40.184Z,3858.75
2023-06-05T09:43:40.142Z,3971.25
2023-06-05T09:44:40.124Z,4117.50
2023-06-05T09:45:40.090Z,4173.75
2023-06-05T09:46:40.097Z,3988.13
2023-06-05T09:47:53.271Z,3960.00
2023-06-05T09:48:40.028Z,4038.75
2023-06-05T09:49:40.131Z,4072.50
2023-06-05T09:50:40.058Z,4027.50
2023-06-05T09:51:39.915Z,4055.63
2023-06-05T09:52:39.889Z,4061.25
2023-06-05T09:53:39.859Z,4050.00
2023-06-05T09:54:39.860Z,4055.63
2023-06-05T09:55:39.802Z,4038.75
2023-06-05T09:56:39.774Z,3993.75
2023-06-05T09:57:39.736Z,4010.63
2023-06-05T09:58:39.716Z,3999.38
2023-06-05T09:59:39.683Z,3954.38
2023-06-05T10:00:39.702Z,3886.88
2023-06-05T10:01:39.633Z,3886.88
2023-06-05T10:02:39.603Z,3915.00
2023-06-05T10:03:39.565Z,3881.25
2023-06-05T10:04:39.827Z,3870.00
2023-06-05T10:05:39.535Z,3886.88
2023-06-05T10:06:39.501Z,3937.50
2023-06-05T10:07:39.457Z,4038.75
2023-06-05T10:08:39.432Z,4140.00
2023-06-05T10:09:39.399Z,4156.88
2023-06-05T10:10:39.384Z,4128.75
2023-06-05T10:11:39.351Z,4128.75
2023-06-05T10:12:39.324Z,4083.75
2023-06-05T10:13:39.293Z,3999.38
2023-06-05T10:14:39.264Z,3993.75
2023-06-05T10:15:39.239Z,3971.25
2023-06-05T10:16:39.246Z,3954.38
2023-06-05T10:17:39.223Z,4021.88
2023-06-05T10:18:39.144Z,4027.50
2023-06-05T10:19:39.122Z,3988.13
2023-06-05T10:20:39.124Z,4021.88
2023-06-05T10:21:39.061Z,4055.63
2023-06-05T10:22:39.048Z,4038.75
2023-06-05T10:23:39.030Z,4061.25
2023-06-05T10:24:38.997Z,4010.63
2023-06-05T10:25:38.950Z,3870.00
2023-06-05T10:26:38.926Z,3830.63
2023-06-05T10:27:38.935Z,3825.00
2023-06-05T10:28:38.866Z,3813.75
2023-06-05T10:29:38.851Z,3841.88
2023-06-05T10:30:38.851Z,3858.75
2023-06-05T10:31:38.810Z,3853.13
2023-06-05T10:32:38.799Z,3853.13
2023-06-05T10:33:49.077Z,3886.88
2023-06-05T10:34:49.514Z,3920.63
2023-06-05T10:37:28.886Z,3898.13
2023-06-05T10:38:35.426Z,3875.63
2023-06-05T10:39:33.534Z,3886.88
2023-06-05T10:40:33.659Z,3943.13
2023-06-05T10:41:32.700Z,3954.38
2023-06-05T10:42:36.675Z,4055.63
2023-06-05T10:43:36.207Z,4111.88
2023-06-05T10:44:25.694Z,4100.63
2023-06-05T10:45:25.031Z,4140.00
2023-06-05T10:46:25.044Z,4095.00
2023-06-05T10:47:25.017Z,4016.25
2023-06-05T10:48:24.938Z,4016.25
2023-06-05T10:49:24.987Z,4010.63
2023-06-05T10:50:24.883Z,4061.25
2023-06-05T10:51:24.858Z,4038.75
2023-06-05T10:52:24.883Z,3920.63
2023-06-05T10:53:24.805Z,3903.75
2023-06-05T10:54:24.896Z,3931.88
2023-06-05T10:55:24.774Z,3909.38
2023-06-05T10:56:24.749Z,3892.50
2023-06-05T10:57:24.699Z,3864.38
2023-06-05T10:58:24.697Z,3785.63
2023-06-05T10:59:24.629Z,3751.88
2023-06-05T11:00:24.602Z,3746.25
2023-06-05T11:01:24.613Z,3701.25
2023-06-05T11:02:24.626Z,3706.88
2023-06-05T11:03:24.519Z,3785.63
2023-06-05T11:04:24.539Z,3774.38
2023-06-05T11:05:24.454Z,3785.63
2023-06-05T11:06:24.430Z,3780.00
2023-06-05T11:07:24.406Z,3802.50
2023-06-05T11:08:24.397Z,3785.63
2023-06-05T11:09:24.342Z,3774.38
2023-06-05T11:10:24.337Z,3780.00
2023-06-05T11:11:24.296Z,3836.25
2023-06-05T11:12:24.267Z,3892.50
2023-06-05T11:13:24.238Z,3875.63
2023-06-05T11:14:24.205Z,3892.50
2023-06-05T11:15:24.178Z,3948.75
2023-06-05T11:16:24.227Z,3971.25
2023-06-05T11:17:24.697Z,3898.13
2023-06-05T11:18:24.111Z,3808.13
2023-06-05T11:19:24.065Z,3780.00
2023-06-05T11:20:24.063Z,3796.88
2023-06-05T11:21:23.998Z,3796.88
2023-06-05T11:22:23.973Z,3785.63
2023-06-05T11:23:24.005Z,3774.38
2023-06-05T11:24:23.921Z,3825.00
2023-06-05T11:25:23.890Z,3830.63
2023-06-05T11:26:23.879Z,3763.13
2023-06-05T11:27:23.841Z,3673.13
2023-06-05T11:28:23.802Z,3633.75
2023-06-05T11:29:23.804Z,3633.75
2023-06-05T11:30:39.287Z,3656.25
2023-06-05T11:31:23.754Z,3678.75
2023-06-05T11:32:23.756Z,3695.63
2023-06-05T11:33:23.738Z,3673.13
2023-06-05T11:34:23.669Z,3718.13
2023-06-05T11:35:24.199Z,3740.63
2023-06-05T11:36:23.590Z,3684.38
2023-06-05T11:37:23.549Z,3611.25
2023-06-05T11:38:25.182Z,3560.63
2023-06-05T11:39:23.483Z,3543.75
2023-06-05T11:40:23.468Z,3577.50
2023-06-05T11:41:23.460Z,3588.75
2023-06-05T11:42:23.416Z,3555.00
2023-06-05T11:43:23.409Z,3549.38
2023-06-05T11:44:23.350Z,3600.00
2023-06-05T11:45:23.317Z,3588.75
2023-06-05T11:46:23.357Z,3566.25
2023-06-05T11:47:23.328Z,3538.13
2023-06-05T11:48:23.253Z,3532.50
2023-06-05T11:49:23.205Z,3504.38
2023-06-05T11:50:23.174Z,3493.13
2023-06-05T11:51:23.148Z,3470.63
2023-06-05T11:52:23.214Z,3431.25
2023-06-05T11:53:23.104Z,3431.25
2023-06-05T11:54:23.080Z,3436.88
2023-06-05T11:55:23.042Z,3465.00
2023-06-05T11:56:23.019Z,3487.50
2023-06-05T11:57:22.981Z,3493.13
2023-06-05T11:58:22.975Z,3493.13
2023-06-05T11:59:22.916Z,3487.50
2023-06-05T12:00:22.908Z,3515.63
2023-06-05T12:01:23.123Z,3566.25
2023-06-05T12:02:22.905Z,3532.50
2023-06-05T12:03:22.990Z,3465.00
2023-06-05T12:04:22.836Z,3442.50
2023-06-05T12:05:22.749Z,3493.13
2023-06-05T12:06:22.747Z,3498.75
2023-06-05T12:07:22.694Z,3493.13
2023-06-05T12:08:22.685Z,3476.25
2023-06-05T12:09:22.690Z,3453.75
2023-06-05T12:10:22.624Z,3431.25
2023-06-05T12:11:22.584Z,3391.88
2023-06-05T12:12:22.564Z,3363.75
2023-06-05T12:13:22.527Z,3363.75
2023-06-05T12:14:22.523Z,3380.63
2023-06-05T12:15:22.503Z,3380.63
2023-06-05T12:16:22.462Z,3386.25
2023-06-05T12:17:22.417Z,3369.38
2023-06-05T12:18:22.394Z,3363.75
2023-06-05T12:19:22.359Z,3369.38
2023-06-05T12:20:22.370Z,3386.25
2023-06-05T12:25:34.160Z,3408.75
2023-06-05T12:26:34.089Z,3420.00
2023-06-05T12:27:34.083Z,3459.38
2023-06-05T12:28:37.028Z,3453.75
2023-06-05T12:29:33.994Z,3420.00
2023-06-05T12:30:33.970Z,3335.63
2023-06-05T12:31:33.983Z,3335.63
2023-06-05T12:32:33.945Z,3341.25
2023-06-05T12:33:33.886Z,3358.13
2023-06-05T12:34:47.409Z,3375.00
2023-06-05T12:35:33.844Z,3341.25
2023-06-05T12:36:33.804Z,3262.50
2023-06-05T12:37:34.300Z,2761.88
2023-06-05T12:38:33.742Z,1406.25
2023-06-05T12:39:33.712Z,810.00